Time;durP1;ratioP1;P1;durP2;ratioP2;P2;SDS_P1;SDS_P2;PMS_P1;PMS_P2;Temp;Humidity;BMP_temperature;BMP_pressure;BME280_temperature;BME280_humidity;BME280_pressure;Samples;Min_cycle;Max_cycle;Signal;HPM_P1;HPM_P2
2023/10/03 00:02:20;;;;;;;52.25;25.65;;;19.50;99.90;;;;;;5060146;28;20068;-77
2023/10/03 00:04:46;;;;;;;50.13;25.48;;;19.50;99.90;;;;;;5083673;28;20107;-78
2023/10/03 00:07:11;;;;;;;55.55;26.92;;;19.50;99.90;;;;;;5071392;28;20070;-77
2023/10/03 00:09:37;;;;;;;55.70;24.88;;;19.50;99.90;;;;;;5068208;28;20023;-78
2023/10/03 00:12:03;;;;;;;49.55;23.70;;;19.60;99.90;;;;;;5079833;28;20043;-77
2023/10/03 00:14:29;;;;;;;47.88;24.35;;;19.60;99.90;;;;;;5083510;28;20123;-77
2023/10/03 00:16:55;;;;;;;51.55;26.10;;;19.60;99.90;;;;;;5069316;28;20107;-76
2023/10/03 00:19:21;;;;;;;51.50;26.25;;;19.70;99.90;;;;;;5079312;28;20392;-77
2023/10/03 00:21:46;;;;;;;48.97;24.23;;;19.70;99.90;;;;;;5080907;28;20027;-76
2023/10/03 00:24:12;;;;;;;46.60;24.10;;;19.80;99.90;;;;;;5057586;28;20012;-77
2023/10/03 00:26:39;;;;;;;47.83;23.15;;;19.80;99.90;;;;;;5070018;28;20020;-78
2023/10/03 00:29:09;;;;;;;46.90;22.52;;;19.80;99.90;;;;;;5063397;28;20236;-77
2023/10/03 00:31:35;;;;;;;52.42;24.52;;;19.90;99.90;;;;;;5081702;28;20431;-77
2023/10/03 00:34:01;;;;;;;45.80;22.15;;;19.90;99.90;;;;;;5065753;28;20020;-77
2023/10/03 00:36:27;;;;;;;44.67;22.70;;;20.00;99.90;;;;;;5090205;28;20024;-77
2023/10/03 00:38:53;;;;;;;49.28;24.38;;;20.10;99.90;;;;;;5074839;28;20526;-77
2023/10/03 00:41:19;;;;;;;51.00;24.88;;;20.00;99.90;;;;;;5084653;28;20024;-76
2023/10/03 00:44:00;;;;;;;46.42;22.70;;;20.10;99.90;;;;;;5068932;28;20016;-77
2023/10/03 00:46:29;;;;;;;47.90;22.27;;;20.10;99.90;;;;;;5070552;28;20107;-76
2023/10/03 00:48:56;;;;;;;47.70;23.60;;;20.20;99.90;;;;;;5074062;28;20016;-76
2023/10/03 00:51:22;;;;;;;50.15;23.38;;;20.20;99.90;;;;;;5083271;28;20119;-76
2023/10/03 00:53:53;;;;;;;44.72;23.00;;;20.20;99.90;;;;;;5062377;28;20031;-78
2023/10/03 00:56:19;;;;;;;46.13;22.27;;;20.20;99.90;;;;;;5066636;28;20021;-77
2023/10/03 00:58:44;;;;;;;41.72;21.90;;;20.20;99.90;;;;;;5083778;28;20033;-77
2023/10/03 01:01:11;;;;;;;45.30;22.25;;;20.20;99.90;;;;;;5080873;28;20023;-77
2023/10/03 01:03:38;;;;;;;40.80;21.30;;;20.20;99.90;;;;;;5068694;28;20032;-77
2023/10/03 01:06:09;;;;;;;41.72;21.00;;;20.20;99.90;;;;;;5069676;28;20050;-76
2023/10/03 01:08:41;;;;;;;42.42;22.30;;;20.20;99.90;;;;;;5077868;28;20028;-77
2023/10/03 01:11:13;;;;;;;41.55;21.25;;;20.30;99.90;;;;;;5083166;28;20059;-76
2023/10/03 01:13:39;;;;;;;45.28;21.48;;;20.30;99.90;;;;;;5073777;28;20090;-77
2023/10/03 01:16:06;;;;;;;44.85;21.80;;;20.40;99.90;;;;;;5066523;28;20026;-77
2023/10/03 01:18:32;;;;;;;42.95;21.73;;;20.40;99.90;;;;;;5059352;28;20023;-77
2023/10/03 01:21:03;;;;;;;42.80;20.75;;;20.40;99.90;;;;;;5081840;28;20021;-76
2023/10/03 01:23:37;;;;;;;44.35;23.33;;;20.40;99.90;;;;;;5077735;28;20151;-77
2023/10/03 01:26:04;;;;;;;42.55;21.80;;;20.40;99.90;;;;;;5066003;28;20021;-76
2023/10/03 01:28:30;;;;;;;45.10;20.98;;;20.40;99.90;;;;;;5066857;28;20022;-76
2023/10/03 01:30:57;;;;;;;42.45;20.35;;;20.30;99.90;;;;;;5075916;28;20392;-76
2023/10/03 01:33:26;;;;;;;39.83;20.23;;;20.30;99.90;;;;;;5081479;28;20066;-77
2023/10/03 01:35:55;;;;;;;39.72;20.50;;;20.40;99.90;;;;;;5071632;28;20082;-76
2023/10/03 01:38:22;;;;;;;40.50;19.42;;;20.40;99.90;;;;;;5075401;28;20024;-78
2023/10/03 01:41:07;;;;;;;41.53;20.92;;;20.40;99.90;;;;;;5069876;28;20012;-76
2023/10/03 01:43:33;;;;;;;42.92;20.73;;;20.40;99.90;;;;;;5081950;28;20020;-75
2023/10/03 01:45:59;;;;;;;44.33;20.88;;;20.40;99.90;;;;;;5061853;28;20028;-79
2023/10/03 01:48:25;;;;;;;36.90;20.25;;;20.40;99.90;;;;;;5083186;28;20025;-76
2023/10/03 01:50:50;;;;;;;40.30;19.13;;;20.40;99.90;;;;;;5066039;28;20607;-77
2023/10/03 01:53:17;;;;;;;39.63;19.92;;;20.40;99.90;;;;;;5058085;28;20057;-76
2023/10/03 01:55:44;;;;;;;37.08;18.58;;;20.40;99.90;;;;;;5085506;28;20373;-76
2023/10/03 01:58:09;;;;;;;35.13;17.73;;;20.50;99.90;;;;;;5057261;28;20059;-77
2023/10/03 02:00:36;;;;;;;41.47;19.58;;;20.60;99.90;;;;;;5069026;28;20066;-76
2023/10/03 02:03:05;;;;;;;38.53;19.10;;;20.50;99.90;;;;;;5072014;28;20032;-77
2023/10/03 02:05:36;;;;;;;38.33;18.02;;;20.60;99.90;;;;;;5085717;28;20536;-77
2023/10/03 02:08:20;;;;;;;37.30;18.63;;;20.70;99.90;;;;;;5080993;28;20503;-76
2023/10/03 02:10:50;;;;;;;34.40;17.67;;;20.60;99.90;;;;;;5077396;28;20028;-78
2023/10/03 02:13:17;;;;;;;35.67;17.38;;;20.70;99.90;;;;;;5066749;28;20056;-76
2023/10/03 02:15:48;;;;;;;38.58;18.35;;;20.60;99.90;;;;;;5065006;28;20016;-76
2023/10/03 02:18:18;;;;;;;35.13;18.23;;;20.60;99.90;;;;;;5087936;28;20016;-75
2023/10/03 02:20:51;;;;;;;36.83;17.83;;;20.60;99.90;;;;;;5081764;28;20488;-76
2023/10/03 02:23:22;;;;;;;36.63;17.48;;;20.70;99.90;;;;;;5073440;28;20041;-76
2023/10/03 02:25:53;;;;;;;34.15;16.98;;;20.70;99.90;;;;;;5081439;28;20451;-77
2023/10/03 02:28:20;;;;;;;36.10;18.13;;;20.70;99.90;;;;;;5082247;28;20039;-76
2023/10/03 02:30:47;;;;;;;34.72;18.15;;;20.70;99.90;;;;;;5077274;28;20479;-76
2023/10/03 02:33:14;;;;;;;31.00;16.25;;;20.70;99.90;;;;;;5065152;28;20060;-76
2023/10/03 02:35:47;;;;;;;34.63;17.35;;;20.80;99.90;;;;;;5067728;28;20013;-76
2023/10/03 02:38:25;;;;;;;33.47;16.58;;;20.80;99.90;;;;;;5068313;28;20036;-77
2023/10/03 02:40:54;;;;;;;36.22;18.23;;;20.70;99.90;;;;;;5064270;28;20099;-76
2023/10/03 02:43:20;;;;;;;36.20;17.98;;;20.70;99.90;;;;;;5056909;28;20027;-76
2023/10/03 02:45:46;;;;;;;37.17;18.15;;;20.80;99.90;;;;;;5065510;28;20008;-76
2023/10/03 02:48:15;;;;;;;34.22;17.17;;;20.70;99.90;;;;;;5067847;28;20020;-75
2023/10/03 02:50:42;;;;;;;29.95;15.73;;;20.80;99.90;;;;;;5063269;28;20580;-77
2023/10/03 02:53:14;;;;;;;37.05;17.45;;;20.80;99.90;;;;;;5060452;28;20424;-77
2023/10/03 02:55:41;;;;;;;31.13;15.68;;;20.80;99.90;;;;;;5059392;28;20028;-77
2023/10/03 02:58:09;;;;;;;33.55;16.58;;;20.80;99.90;;;;;;5061725;28;20032;-77
2023/10/03 03:00:38;;;;;;;33.60;16.27;;;20.80;99.90;;;;;;5078702;28;20028;-76
2023/10/03 03:03:09;;;;;;;34.35;17.45;;;20.80;99.90;;;;;;5062660;28;20035;-77
2023/10/03 03:05:36;;;;;;;31.98;16.88;;;20.80;99.90;;;;;;5077338;28;20020;-76
2023/10/03 03:08:10;;;;;;;30.77;14.80;;;20.80;99.90;;;;;;5063995;28;20028;-76
2023/10/03 03:10:38;;;;;;;33.03;17.27;;;20.80;99.90;;;;;;5075347;28;20017;-78
2023/10/03 03:13:07;;;;;;;32.40;16.50;;;20.80;99.90;;;;;;5062333;28;20039;-77
2023/10/03 03:15:36;;;;;;;36.33;17.15;;;20.90;99.90;;;;;;5067855;28;20021;-76
2023/10/03 03:18:03;;;;;;;34.90;17.73;;;20.80;99.90;;;;;;5060335;28;20835;-77
2023/10/03 03:20:36;;;;;;;34.63;17.92;;;20.80;99.90;;;;;;5083536;28;20016;-77
2023/10/03 03:23:02;;;;;;;34.80;17.13;;;20.80;99.90;;;;;;5062015;28;20665;-77
2023/10/03 03:25:37;;;;;;;31.15;17.35;;;20.80;99.90;;;;;;5075347;28;20051;-77
2023/10/03 03:28:13;;;;;;;29.48;15.63;;;20.80;99.90;;;;;;5076323;28;20365;-77
2023/10/03 03:30:46;;;;;;;30.23;15.93;;;20.70;99.90;;;;;;5062493;28;20009;-76
2023/10/03 03:33:19;;;;;;;;;;;20.80;99.90;;;;;;5079787;28;20807;-78
2023/10/03 03:35:48;;;;;;;36.90;17.98;;;20.70;99.90;;;;;;5079676;28;20276;-77
2023/10/03 03:38:18;;;;;;;28.85;15.80;;;20.70;99.90;;;;;;5074403;28;20032;-77
2023/10/03 03:40:55;;;;;;;32.63;14.88;;;20.60;99.90;;;;;;5087155;28;20017;-76
2023/10/03 03:43:21;;;;;;;28.10;14.65;;;20.70;99.90;;;;;;5078799;28;20028;-76
2023/10/03 03:45:48;;;;;;;27.42;14.07;;;20.70;99.90;;;;;;5073767;28;20353;-77
2023/10/03 03:48:14;;;;;;;28.92;14.90;;;20.70;99.90;;;;;;5067118;28;20016;-77
2023/10/03 03:50:41;;;;;;;28.58;14.27;;;20.70;99.90;;;;;;5074979;28;20069;-76
2023/10/03 03:53:07;;;;;;;31.08;14.32;;;20.60;99.90;;;;;;5067774;28;20515;-76
2023/10/03 03:55:34;;;;;;;27.02;12.90;;;20.60;99.90;;;;;;5060710;28;20395;-77
2023/10/03 03:58:04;;;;;;;23.80;11.75;;;20.60;99.90;;;;;;5080353;28;20100;-75
2023/10/03 04:00:31;;;;;;;22.63;12.02;;;20.60;99.90;;;;;;5063628;28;20060;-76
2023/10/03 04:02:59;;;;;;;21.27;11.15;;;20.50;99.90;;;;;;5083827;28;20058;-76
2023/10/03 04:05:25;;;;;;;19.42;10.15;;;20.60;99.90;;;;;;5065085;28;20027;-77
2023/10/03 04:07:51;;;;;;;22.67;11.20;;;20.50;99.90;;;;;;5077034;28;20016;-75
2023/10/03 04:10:18;;;;;;;17.70;9.70;;;20.50;99.90;;;;;;5059686;28;20023;-76
2023/10/03 04:12:43;;;;;;;20.05;10.20;;;20.60;99.90;;;;;;5081222;28;20046;-77
2023/10/03 04:15:12;;;;;;;18.45;8.90;;;20.60;99.90;;;;;;5072026;28;20033;-76
2023/10/03 04:17:42;;;;;;;18.40;10.65;;;20.60;99.90;;;;;;5067784;28;20693;-77
2023/10/03 04:22:50;;;;;;;17.25;9.88;;;20.70;99.90;;;;;;5076698;28;20391;-77
2023/10/03 04:25:20;;;;;;;16.25;9.30;;;20.80;99.90;;;;;;5073110;28;20438;-77
2023/10/03 04:27:51;;;;;;;18.00;10.60;;;20.80;99.90;;;;;;5080400;28;20383;-77
2023/10/03 04:30:20;;;;;;;19.10;10.70;;;20.80;99.90;;;;;;5059559;28;20079;-77
2023/10/03 04:32:49;;;;;;;19.52;10.82;;;20.80;99.90;;;;;;5072506;28;20031;-77
2023/10/03 04:35:18;;;;;;;19.65;10.52;;;20.70;99.90;;;;;;5081439;28;20073;-77
2023/10/03 04:37:44;;;;;;;23.73;10.77;;;20.70;99.90;;;;;;5083462;28;20421;-76
2023/10/03 04:40:13;;;;;;;22.35;10.85;;;20.70;99.90;;;;;;5080192;28;20086;-76
2023/10/03 04:42:41;;;;;;;15.65;8.80;;;20.70;99.90;;;;;;5066814;28;20486;-77
2023/10/03 04:45:10;;;;;;;17.48;9.20;;;20.60;99.90;;;;;;5078541;28;20385;-76
2023/10/03 04:47:41;;;;;;;17.50;8.77;;;20.60;99.90;;;;;;5066748;28;20027;-77
2023/10/03 04:50:08;;;;;;;16.52;8.43;;;20.60;99.90;;;;;;5071896;28;20125;-76
2023/10/03 04:52:33;;;;;;;15.30;7.97;;;20.60;99.90;;;;;;5079610;28;20476;-76
2023/10/03 04:54:59;;;;;;;18.52;8.23;;;20.60;99.90;;;;;;5079593;28;20031;-76
2023/10/03 04:57:27;;;;;;;21.65;8.85;;;20.70;99.90;;;;;;5059927;28;20032;-76
2023/10/03 04:59:56;;;;;;;13.02;8.13;;;20.60;99.90;;;;;;5067091;28;20077;-77
2023/10/03 05:02:30;;;;;;;15.23;7.15;;;20.70;99.90;;;;;;5083586;28;20077;-77
2023/10/03 05:04:56;;;;;;;12.80;6.82;;;20.70;99.90;;;;;;5057631;28;20028;-76
2023/10/03 05:07:24;;;;;;;15.50;7.40;;;20.60;99.90;;;;;;5068395;28;20020;-76
2023/10/03 05:09:54;;;;;;;16.67;7.60;;;20.60;99.90;;;;;;5080314;28;20022;-76
2023/10/03 05:12:20;;;;;;;12.13;5.95;;;20.60;99.90;;;;;;5080022;28;20039;-76
2023/10/03 05:14:48;;;;;;;13.45;6.88;;;20.60;99.90;;;;;;5083631;28;20040;-77
2023/10/03 05:17:15;;;;;;;14.88;6.75;;;20.60;99.90;;;;;;5076340;28;20020;-76
2023/10/03 05:19:41;;;;;;;12.93;7.15;;;20.50;99.90;;;;;;5060846;28;20017;-76
2023/10/03 05:22:08;;;;;;;15.45;7.25;;;20.40;99.90;;;;;;5062545;28;20024;-77
2023/10/03 05:24:35;;;;;;;18.52;7.18;;;20.40;99.90;;;;;;5085264;28;20539;-77
2023/10/03 05:27:01;;;;;;;15.38;7.72;;;20.40;99.90;;;;;;5066977;28;20013;-76
2023/10/03 05:29:30;;;;;;;15.55;8.15;;;20.40;99.90;;;;;;5082478;28;20035;-77
2023/10/03 05:31:59;;;;;;;15.63;7.60;;;20.40;99.90;;;;;;5065973;28;20521;-76
2023/10/03 05:34:26;;;;;;;13.02;7.47;;;20.40;99.90;;;;;;5073953;28;20078;-76
2023/10/03 05:36:52;;;;;;;16.63;7.22;;;20.40;99.90;;;;;;5069980;28;20431;-76
2023/10/03 05:39:18;;;;;;;15.77;7.68;;;20.40;99.90;;;;;;5063699;28;20469;-76
2023/10/03 05:41:44;;;;;;;12.70;6.53;;;20.40;99.90;;;;;;5066264;28;20438;-76
2023/10/03 05:44:13;;;;;;;11.52;7.20;;;20.40;99.90;;;;;;5077150;28;20020;-76
2023/10/03 05:46:42;;;;;;;16.83;8.05;;;20.50;99.90;;;;;;5081435;28;20012;-76
2023/10/03 05:49:11;;;;;;;15.85;7.15;;;20.50;99.90;;;;;;5078198;28;20020;-75
2023/10/03 05:51:37;;;;;;;15.52;7.15;;;20.40;99.90;;;;;;5064566;28;20514;-77
2023/10/03 05:54:06;;;;;;;15.05;7.65;;;20.40;99.90;;;;;;5061772;28;20066;-76
2023/10/03 05:56:32;;;;;;;15.18;7.78;;;20.40;99.90;;;;;;5063496;28;20027;-77
2023/10/03 05:59:00;;;;;;;11.52;7.50;;;20.40;99.90;;;;;;5061706;28;20139;-77
2023/10/03 06:01:26;;;;;;;11.88;7.00;;;20.40;99.90;;;;;;5067265;28;20067;-76
2023/10/03 06:03:51;;;;;;;15.48;7.30;;;20.30;99.90;;;;;;5067493;28;20040;-77
2023/10/03 06:06:17;;;;;;;16.38;8.27;;;20.40;99.90;;;;;;5061506;28;20031;-76
2023/10/03 06:08:48;;;;;;;13.32;7.03;;;20.40;99.90;;;;;;5079893;28;20066;-76
2023/10/03 06:11:14;;;;;;;11.98;7.30;;;20.40;99.90;;;;;;5056743;28;20119;-77
2023/10/03 06:13:44;;;;;;;12.70;6.88;;;20.40;99.90;;;;;;5068255;28;20097;-77
2023/10/03 06:16:14;;;;;;;13.13;6.72;;;20.40;99.90;;;;;;5057627;28;20075;-76
2023/10/03 06:18:41;;;;;;;10.10;7.10;;;20.40;99.90;;;;;;5064999;28;20154;-76
2023/10/03 06:21:10;;;;;;;16.33;6.70;;;20.40;99.90;;;;;;5075617;28;20032;-77
2023/10/03 06:23:39;;;;;;;13.23;7.38;;;20.30;99.90;;;;;;5071347;28;20028;-77
2023/10/03 06:26:05;;;;;;;13.32;7.63;;;20.30;99.90;;;;;;5067789;28;20024;-76
2023/10/03 06:28:31;;;;;;;12.25;6.32;;;20.30;99.90;;;;;;5080604;28;20033;-77
2023/10/03 06:30:57;;;;;;;11.35;7.25;;;20.40;99.90;;;;;;5065974;28;20016;-76
2023/10/03 06:33:23;;;;;;;13.27;7.35;;;20.40;99.90;;;;;;5071478;28;20035;-76
2023/10/03 06:35:50;;;;;;;10.52;6.78;;;20.40;99.90;;;;;;5091034;28;20137;-77
2023/10/03 06:38:17;;;;;;;15.18;6.90;;;20.40;99.90;;;;;;5072882;28;20303;-76
2023/10/03 06:40:43;;;;;;;13.82;7.45;;;20.30;99.90;;;;;;5074857;28;20031;-76
2023/10/03 06:43:09;;;;;;;10.02;6.85;;;20.30;99.90;;;;;;5073840;28;20021;-76
2023/10/03 06:45:36;;;;;;;12.77;6.82;;;20.40;99.90;;;;;;5089361;28;20012;-77
2023/10/03 06:48:03;;;;;;;16.55;7.50;;;20.30;99.90;;;;;;5079903;28;20130;-76
2023/10/03 06:50:30;;;;;;;16.17;7.60;;;20.40;99.90;;;;;;5078379;28;20016;-76
2023/10/03 06:52:56;;;;;;;18.75;7.22;;;20.40;99.90;;;;;;5097510;28;20040;-76
2023/10/03 06:55:22;;;;;;;12.40;7.95;;;20.40;99.90;;;;;;5080151;28;20051;-76
2023/10/03 06:57:47;;;;;;;12.20;7.72;;;20.40;99.90;;;;;;5076971;28;20039;-77
2023/10/03 07:00:14;;;;;;;13.23;7.25;;;20.30;99.90;;;;;;5078774;28;20035;-76
2023/10/03 07:02:41;;;;;;;15.82;8.63;;;20.30;99.90;;;;;;5054569;28;20500;-76
2023/10/03 07:05:07;;;;;;;10.95;7.05;;;20.30;99.90;;;;;;5070969;28;20028;-76
2023/10/03 07:07:34;;;;;;;13.15;7.88;;;20.40;99.90;;;;;;5072758;28;20029;-76
2023/10/03 07:10:00;;;;;;;10.63;7.50;;;20.30;99.90;;;;;;5092711;28;20433;-76
2023/10/03 07:12:25;;;;;;;12.95;8.00;;;20.40;99.90;;;;;;5074654;28;20540;-76
2023/10/03 07:14:51;;;;;;;13.82;7.40;;;20.50;99.90;;;;;;5092065;28;20070;-76
2023/10/03 07:17:17;;;;;;;16.35;7.95;;;20.50;99.90;;;;;;5091138;28;20056;-76
2023/10/03 07:19:46;;;;;;;16.60;8.02;;;20.50;99.90;;;;;;5085738;28;20059;-76
2023/10/03 07:22:12;;;;;;;17.40;7.93;;;20.50;99.90;;;;;;5063397;28;20077;-75
2023/10/03 07:24:39;;;;;;;10.90;7.13;;;20.50;99.90;;;;;;5051469;28;20024;-76
2023/10/03 07:27:08;;;;;;;17.48;7.45;;;20.50;99.90;;;;;;5078312;28;20148;-76
2023/10/03 07:29:42;;;;;;;15.40;8.85;;;20.50;99.90;;;;;;5073125;28;20550;-75
2023/10/03 07:32:12;;;;;;;17.85;7.82;;;20.60;99.90;;;;;;5072400;28;20035;-77
2023/10/03 07:34:42;;;;;;;13.45;7.75;;;20.50;99.90;;;;;;5073253;28;20028;-76
2023/10/03 07:37:09;;;;;;;14.68;7.43;;;20.50;99.90;;;;;;5072924;28;20411;-75
2023/10/03 07:39:35;;;;;;;18.25;8.43;;;20.50;99.90;;;;;;5091681;28;20020;-75
2023/10/03 07:42:01;;;;;;;13.10;8.35;;;20.50;99.90;;;;;;5092121;28;20387;-75
2023/10/03 07:44:27;;;;;;;14.23;7.32;;;20.50;99.90;;;;;;5091829;28;20050;-77
2023/10/03 07:46:53;;;;;;;18.98;8.75;;;20.50;99.90;;;;;;5111961;28;20142;-75
2023/10/03 07:49:19;;;;;;;16.00;8.10;;;20.50;99.90;;;;;;5093726;28;20107;-75
2023/10/03 07:51:45;;;;;;;14.48;8.18;;;20.50;99.90;;;;;;5094616;28;20118;-75
2023/10/03 07:54:13;;;;;;;21.50;9.00;;;20.50;99.90;;;;;;5072687;28;20112;-75
2023/10/03 07:56:42;;;;;;;16.80;8.60;;;20.50;99.90;;;;;;5057615;28;20028;-75
2023/10/03 07:59:08;;;;;;;12.77;8.25;;;20.40;99.90;;;;;;5075411;28;20020;-76
2023/10/03 08:01:38;;;;;;;20.27;9.27;;;20.40;99.90;;;;;;5075620;28;20550;-75
2023/10/03 08:04:08;;;;;;;16.17;8.70;;;20.40;99.90;;;;;;5057447;28;20017;-76
2023/10/03 08:06:34;;;;;;;18.60;9.63;;;20.50;99.90;;;;;;5057558;28;20024;-76
2023/10/03 08:09:00;;;;;;;14.98;8.75;;;20.50;99.90;;;;;;5056992;28;20016;-77
2023/10/03 08:11:30;;;;;;;18.73;8.95;;;20.50;99.90;;;;;;5075281;28;20476;-76
2023/10/03 08:13:57;;;;;;;16.90;9.82;;;20.50;99.90;;;;;;5074131;28;20021;-77
2023/10/03 08:16:23;;;;;;;15.45;7.85;;;20.50;99.90;;;;;;5067672;28;20034;-76
2023/10/03 08:18:58;;;;;;;13.50;8.10;;;20.60;99.90;;;;;;5097939;28;20027;-77
2023/10/03 08:21:28;;;;;;;14.18;7.68;;;20.60;99.90;;;;;;5057670;28;20468;-78
2023/10/03 08:23:55;;;;;;;19.52;9.75;;;20.50;99.90;;;;;;5059123;28;20092;-79
2023/10/03 08:26:27;;;;;;;21.73;9.55;;;20.50;99.90;;;;;;5059363;28;20016;-81
2023/10/03 08:28:59;;;;;;;;;;;20.30;99.90;;;;;;5076970;28;20050;-80
2023/10/03 08:31:27;;;;;;;21.13;9.43;;;20.30;99.90;;;;;;5078872;28;19961;-81
2023/10/03 08:33:55;;;;;;;10.23;8.13;;;20.20;99.90;;;;;;5079252;28;20062;-79
2023/10/03 08:36:23;;;;;;;13.88;7.60;;;20.20;99.90;;;;;;5097049;28;20033;-79
2023/10/03 08:38:49;;;;;;;11.10;7.93;;;20.10;99.90;;;;;;5094924;28;20046;-78
2023/10/03 08:41:45;;;;;;;12.23;8.48;;;20.10;99.90;;;;;;5077685;28;20028;-78
2023/10/03 08:44:13;;;;;;;14.68;8.55;;;20.20;99.90;;;;;;5058309;28;20032;-78
2023/10/03 08:47:00;;;;;;;13.15;8.38;;;20.20;99.90;;;;;;5054935;28;20016;-80
2023/10/03 08:49:38;;;;;;;14.10;9.05;;;20.10;99.90;;;;;;5075312;28;20102;-78
2023/10/03 08:52:11;;;;;;;15.50;8.57;;;20.20;99.90;;;;;;5074527;28;20483;-77
2023/10/03 08:54:39;;;;;;;13.85;9.38;;;20.30;99.90;;;;;;5098321;28;20533;-77
2023/10/03 08:57:05;;;;;;;9.27;8.38;;;20.30;99.90;;;;;;5096418;28;20019;-78
2023/10/03 08:59:32;;;;;;;17.13;9.20;;;20.30;99.90;;;;;;5095285;28;20222;-78
2023/10/03 09:02:05;;;;;;;16.40;10.20;;;20.30;99.90;;;;;;5074327;28;20073;-77
2023/10/03 09:04:38;;;;;;;15.35;10.38;;;20.30;99.90;;;;;;5085385;28;20051;-76
2023/10/03 09:07:10;;;;;;;21.15;10.68;;;20.30;99.90;;;;;;5093812;28;20007;-77
2023/10/03 09:09:41;;;;;;;;;;;20.30;99.90;;;;;;5075532;28;20072;-77
2023/10/03 09:12:08;;;;;;;13.60;9.80;;;20.30;99.90;;;;;;5077358;28;20264;-77
2023/10/03 09:14:36;;;;;;;16.83;9.45;;;20.30;99.90;;;;;;5097500;28;20020;-77
2023/10/03 09:17:05;;;;;;;9.40;7.32;;;20.20;99.90;;;;;;5076275;28;20437;-77
2023/10/03 09:19:42;;;;;;;11.68;7.22;;;20.20;99.90;;;;;;5095735;28;20015;-77
2023/10/03 09:22:08;;;;;;;12.48;6.45;;;20.20;99.90;;;;;;5095460;28;20024;-78
2023/10/03 09:24:43;;;;;;;10.75;5.45;;;20.10;99.90;;;;;;5072793;28;20043;-76
2023/10/03 09:27:20;;;;;;;6.20;3.92;;;20.10;99.90;;;;;;5095879;28;20016;-78
2023/10/03 09:29:49;;;;;;;8.93;2.90;;;20.10;99.90;;;;;;5093067;28;20034;-77
2023/10/03 09:32:17;;;;;;;6.65;3.10;;;20.00;99.90;;;;;;5094747;28;20020;-78
2023/10/03 09:34:45;;;;;;;6.45;2.47;;;20.00;99.90;;;;;;5096997;28;20035;-76
2023/10/03 09:37:11;;;;;;;6.32;1.92;;;19.90;99.90;;;;;;5096849;28;20409;-76
2023/10/03 09:39:48;;;;;;;7.00;2.28;;;19.80;99.90;;;;;;5076492;28;20107;-79
2023/10/03 09:42:18;;;;;;;3.97;1.17;;;19.70;99.90;;;;;;5077118;28;20100;-79
2023/10/03 09:44:57;;;;;;;4.50;1.15;;;19.70;99.90;;;;;;5096562;28;20059;-79
2023/10/03 09:47:29;;;;;;;2.97;1.17;;;19.60;99.90;;;;;;5076836;28;20023;-76
2023/10/03 09:50:06;;;;;;;4.15;0.80;;;19.70;99.90;;;;;;5077575;28;20020;-75
2023/10/03 09:52:32;;;;;;;2.22;0.60;;;19.60;99.90;;;;;;5076442;28;20368;-76
2023/10/03 09:55:13;;;;;;;1.30;0.60;;;19.60;99.90;;;;;;5076280;28;20129;-76
2023/10/03 09:57:39;;;;;;;2.67;1.05;;;19.70;99.90;;;;;;5077890;28;20449;-76
2023/10/03 10:00:23;;;;;;;5.53;1.15;;;19.90;99.90;;;;;;5075227;28;20023;-77
2023/10/03 10:02:54;;;;;;;5.50;1.00;;;19.90;99.90;;;;;;5073620;28;20076;-76
2023/10/03 10:05:23;;;;;;;2.60;0.90;;;19.80;99.90;;;;;;5077605;28;20012;-76
2023/10/03 10:08:34;;;;;;;3.80;1.10;;;19.80;99.90;;;;;;5093604;28;20543;-75
2023/10/03 10:11:10;;;;;;;2.90;0.95;;;19.80;99.90;;;;;;4997460;28;20065;-78
2023/10/03 10:13:37;;;;;;;2.75;1.05;;;19.80;99.90;;;;;;4993437;28;20045;-75
2023/10/03 10:19:01;;;;;;;3.72;1.33;;;19.90;99.90;;;;;;5057785;28;20058;-76
2023/10/03 10:21:32;;;;;;;3.45;0.60;;;19.90;99.90;;;;;;5073039;28;20051;-77
2023/10/03 10:24:15;;;;;;;3.03;0.80;;;19.90;99.90;;;;;;5073222;28;20232;-77
2023/10/03 10:26:41;;;;;;;;;;;20.00;99.90;;;;;;5076419;28;20511;-78
2023/10/03 10:29:09;;;;;;;4.28;1.45;;;20.00;99.90;;;;;;5075117;28;19957;-76
2023/10/03 10:31:44;;;;;;;6.43;1.40;;;20.00;99.90;;;;;;5071823;28;20440;-75
2023/10/03 10:34:21;;;;;;;1.73;0.90;;;19.90;99.90;;;;;;5071168;28;20567;-76
2023/10/03 10:37:09;;;;;;;3.10;0.90;;;19.90;99.90;;;;;;5071803;28;20026;-76
2023/10/03 10:39:53;;;;;;;5.55;1.08;;;19.80;99.90;;;;;;5070864;28;20102;-77
2023/10/03 10:42:22;;;;;;;5.05;0.90;;;19.70;99.90;;;;;;5073901;28;20042;-76
2023/10/03 10:45:13;;;;;;;2.70;0.70;;;19.70;99.90;;;;;;5074119;28;20039;-76
2023/10/03 10:47:45;;;;;;;0.70;0.50;;;19.60;99.90;;;;;;5077691;28;20028;-77
2023/10/03 10:50:11;;;;;;;3.70;0.70;;;19.70;99.90;;;;;;5095256;28;20015;-77
2023/10/03 10:53:02;;;;;;;1.65;0.57;;;19.60;99.90;;;;;;5073630;28;20079;-77
2023/10/03 10:55:28;;;;;;;1.67;0.60;;;19.50;99.90;;;;;;5071458;28;20106;-77
2023/10/03 10:58:22;;;;;;;2.60;0.65;;;19.50;99.90;;;;;;5090719;28;20020;-77
2023/10/03 11:00:58;;;;;;;3.33;0.88;;;19.50;99.90;;;;;;5069933;28;20113;-77
2023/10/03 11:03:24;;;;;;;3.15;0.57;;;19.60;99.90;;;;;;5090293;28;20494;-77
2023/10/03 11:05:55;;;;;;;2.22;0.80;;;19.60;99.90;;;;;;5074287;28;20020;-77
2023/10/03 11:08:21;;;;;;;2.60;0.80;;;19.60;99.90;;;;;;5074484;28;20449;-77
2023/10/03 11:10:56;;;;;;;2.10;0.40;;;19.40;99.90;;;;;;5067326;28;20004;-77
2023/10/03 11:13:23;;;;;;;1.92;0.68;;;19.30;99.90;;;;;;5077473;28;20110;-77
2023/10/03 11:15:53;;;;;;;2.67;0.90;;;19.40;99.90;;;;;;5097511;28;20031;-78
2023/10/03 11:18:31;;;;;;;2.20;0.80;;;19.30;99.90;;;;;;5078418;28;20026;-77
2023/10/03 11:20:59;;;;;;;2.83;0.50;;;19.20;99.90;;;;;;5073688;28;20023;-77
2023/10/03 11:23:24;;;;;;;1.83;0.85;;;19.30;99.90;;;;;;5074978;28;20499;-78
2023/10/03 11:25:57;;;;;;;3.10;0.68;;;19.30;99.90;;;;;;5096522;28;20094;-77
2023/10/03 11:28:24;;;;;;;2.50;0.63;;;19.50;99.90;;;;;;5082070;28;20096;-78
2023/10/03 11:31:04;;;;;;;2.13;0.82;;;19.60;99.90;;;;;;5081308;28;20007;-77
2023/10/03 11:33:44;;;;;;;2.25;0.70;;;19.70;99.90;;;;;;5076410;28;20085;-78
2023/10/03 11:36:12;;;;;;;3.22;0.70;;;19.70;99.90;;;;;;5078527;28;20017;-76
2023/10/03 11:38:53;;;;;;;2.80;0.73;;;19.70;99.90;;;;;;5080688;28;20430;-77
2023/10/03 11:41:34;;;;;;;3.20;0.80;;;19.70;99.90;;;;;;5097503;28;20093;-80
2023/10/03 11:44:09;;;;;;;3.10;1.23;;;19.80;99.90;;;;;;5076729;28;20036;-77
2023/10/03 11:46:37;;;;;;;5.53;1.48;;;19.80;99.90;;;;;;5079292;28;20437;-76
2023/10/03 11:49:03;;;;;;;4.57;1.70;;;19.90;99.90;;;;;;5083641;28;20061;-77
2023/10/03 11:51:29;;;;;;;6.95;1.60;;;20.00;99.90;;;;;;5081822;28;20452;-78
2023/10/03 11:53:55;;;;;;;5.72;2.05;;;20.00;99.90;;;;;;5082045;28;20079;-77
2023/10/03 11:56:21;;;;;;;8.10;2.42;;;19.80;99.90;;;;;;5079314;28;20023;-77
2023/10/03 11:58:46;;;;;;;6.20;1.88;;;19.70;99.90;;;;;;5076678;28;20547;-76
2023/10/03 12:01:12;;;;;;;4.40;2.10;;;19.50;99.90;;;;;;5073268;28;20012;-77
2023/10/03 12:03:38;;;;;;;8.82;1.75;;;19.50;99.90;;;;;;5074100;28;20373;-75
2023/10/03 12:06:04;;;;;;;6.30;2.10;;;19.40;99.90;;;;;;5080050;28;20024;-78
2023/10/03 12:08:32;;;;;;;6.22;1.85;;;19.50;99.90;;;;;;5074335;28;20429;-78
2023/10/03 12:10:58;;;;;;;4.93;1.42;;;19.70;99.90;;;;;;5072782;28;20260;-76
2023/10/03 12:13:24;;;;;;;3.67;2.20;;;20.00;99.90;;;;;;5069395;28;20355;-76
2023/10/03 12:15:49;;;;;;;3.70;1.50;;;20.30;99.90;;;;;;5068556;28;20028;-77
2023/10/03 12:18:15;;;;;;;4.57;1.65;;;20.50;99.90;;;;;;5089177;28;20012;-78
2023/10/03 12:20:44;;;;;;;3.70;1.33;;;20.70;99.90;;;;;;5070821;28;20352;-77
2023/10/03 12:23:10;;;;;;;4.80;1.13;;;20.70;99.90;;;;;;5075835;28;20032;-77
2023/10/03 12:25:36;;;;;;;5.05;1.30;;;20.90;99.90;;;;;;5068881;28;20078;-77
2023/10/03 12:28:02;;;;;;;6.45;2.00;;;21.00;99.90;;;;;;5078734;28;20012;-77
2023/10/03 12:30:28;;;;;;;8.25;1.88;;;20.90;99.90;;;;;;5070774;28;20024;-79
2023/10/03 12:32:54;;;;;;;4.40;2.03;;;20.80;99.90;;;;;;5069425;28;20039;-77
2023/10/03 12:35:20;;;;;;;4.00;1.58;;;20.70;99.90;;;;;;5073941;28;20331;-78
2023/10/03 12:37:48;;;;;;;4.43;1.50;;;20.40;99.90;;;;;;5065221;28;20020;-77
2023/10/03 12:40:19;;;;;;;4.50;1.77;;;20.40;99.90;;;;;;5074518;28;20064;-78
2023/10/03 12:42:50;;;;;;;4.32;1.75;;;20.40;99.90;;;;;;5066973;28;20363;-78
2023/10/03 12:45:20;;;;;;;2.60;1.35;;;20.40;99.90;;;;;;5079377;28;20047;-78
2023/10/03 12:47:54;;;;;;;3.17;1.52;;;20.30;99.90;;;;;;5071552;28;20380;-78
2023/10/03 12:50:24;;;;;;;4.78;1.90;;;20.40;99.90;;;;;;5072491;28;20057;-77
2023/10/03 12:52:55;;;;;;;2.72;1.75;;;20.50;99.90;;;;;;5067374;28;20042;-78
2023/10/03 12:55:25;;;;;;;3.05;1.58;;;20.40;99.90;;;;;;5070429;28;20028;-77